Terminal Aerodrome Forecast
Issued by NWS Knoxville/Tri Cities, TN

Home | Current Version | Previous Version | Text Only | Print | Product List | Glossary On
Versions: 1 2 3 4 5 6 7 8 9 10 11 12 13 14 15 16 17 18 19 20 21 22 23
000
FTUS44 KMRX 170531
TAFTYS
TAF
KTYS 170531Z 1706/1806 20003KT P6SM SCT080 BKN120
     FM171100 22012KT P6SM VCSH SCT050 BKN080
     FM172100 21012G18KT 6SM SHRA VCTS SCT030 BKN045CB=

USA.gov is the U.S. government's official web portal to all federal, state and local government web resources and services.